createdAt,value
2017-04-02T00:00:22.314Z,1007.04
2017-04-02T00:01:32.555Z,1007.03
2017-04-02T00:02:42.492Z,1007.06
2017-04-02T00:03:52.740Z,1007.03
2017-04-02T00:05:02.982Z,1007.07
2017-04-02T00:06:13.222Z,1007.04
2017-04-02T00:07:23.472Z,1007.08
2017-04-02T00:08:33.400Z,1007.04
2017-04-02T00:09:43.638Z,1007.09
2017-04-02T00:10:53.877Z,1007.09
2017-04-02T00:12:04.132Z,1007.11
2017-04-02T00:13:14.060Z,1007.09
2017-04-02T00:14:24.315Z,1007.1
2017-04-02T00:15:34.251Z,1007.14
2017-04-02T00:16:44.187Z,1007.14
2017-04-02T00:17:54.426Z,1007.13
2017-04-02T00:19:04.359Z,1007.18
2017-04-02T00:20:14.598Z,1007.22
2017-04-02T00:21:24.836Z,1007.29
2017-04-02T00:22:35.081Z,1007.28
2017-04-02T00:23:45.013Z,1007.2
2017-04-02T00:24:55.249Z,1007.23
2017-04-02T00:26:05.491Z,1007.16
2017-04-02T00:27:15.726Z,1007.18
2017-04-02T00:28:25.655Z,1007.15
2017-04-02T00:29:35.895Z,1007.14
2017-04-02T00:30:45.829Z,1007.14
2017-04-02T00:31:55.764Z,1007.14
2017-04-02T00:33:05.688Z,1007.15
2017-04-02T00:34:15.315Z,1007.15
2017-04-02T00:35:25.559Z,1007.15
2017-04-02T00:36:35.809Z,1007.16
2017-04-02T00:37:45.424Z,1007.14
2017-04-02T00:38:54.721Z,1007.08
2017-04-02T00:40:05.010Z,1007.09
2017-04-02T00:41:14.630Z,1007.09
2017-04-02T00:42:24.568Z,1007.07
2017-04-02T00:43:34.496Z,1007.05
2017-04-02T00:44:44.732Z,1007.05
2017-04-02T00:45:54.983Z,1007.04
2017-04-02T00:47:05.225Z,1007.05
2017-04-02T00:48:15.159Z,1007.04
2017-04-02T00:49:25.089Z,1007.05
2017-04-02T00:50:35.017Z,1007.11
2017-04-02T00:51:44.945Z,1007.12
2017-04-02T00:52:55.186Z,1007.15
2017-04-02T00:54:05.428Z,1007.15
2017-04-02T00:55:15.668Z,1007.09
2017-04-02T00:56:25.603Z,1007.12
2017-04-02T00:57:35.847Z,1007.1
2017-04-02T00:58:46.116Z,1007.08
2017-04-02T00:59:56.353Z,1007.06
2017-04-02T01:01:06.279Z,1007.12
2017-04-02T01:02:16.215Z,1007.12
2017-04-02T01:03:26.145Z,1007.14
2017-04-02T01:04:35.756Z,1007.09
2017-04-02T01:05:45.994Z,1007.12
2017-04-02T01:06:55.609Z,1007.13
2017-04-02T01:08:05.545Z,1007.12
2017-04-02T01:09:15.165Z,1007.11
2017-04-02T01:10:25.093Z,1007.09
2017-04-02T01:11:35.023Z,1007.03
2017-04-02T01:12:45.264Z,1007.09
2017-04-02T01:13:55.507Z,1007.05
2017-04-02T01:15:05.117Z,1007.03
2017-04-02T01:16:15.047Z,1007.03
2017-04-02T01:17:25.292Z,1007.04
2017-04-02T01:18:35.536Z,1007.07
2017-04-02T01:19:45.460Z,1007.07
2017-04-02T01:20:55.391Z,1007.06
2017-04-02T01:22:05.018Z,1007.08
2017-04-02T01:23:15.266Z,1007.05
2017-04-02T01:24:24.886Z,1007.07
2017-04-02T01:25:34.811Z,1007.07
2017-04-02T01:26:45.053Z,1007.14
2017-04-02T01:27:55.298Z,1007.14
2017-04-02T01:29:05.538Z,1007.16
2017-04-02T01:30:15.463Z,1007.18
2017-04-02T01:31:25.743Z,1007.2
2017-04-02T01:32:35.981Z,1007.14
2017-04-02T01:33:46.229Z,1007.14
2017-04-02T01:34:56.474Z,1007.16
2017-04-02T01:36:06.715Z,1007.22
2017-04-02T01:37:16.957Z,1007.24
2017-04-02T01:38:27.195Z,1007.22
2017-04-02T01:39:36.810Z,1007.23
2017-04-02T01:40:47.052Z,1007.24
2017-04-02T01:41:57.298Z,1007.25
2017-04-02T01:43:07.539Z,1007.28
2017-04-02T01:44:17.776Z,1007.26
2017-04-02T01:45:28.020Z,1007.31
2017-04-02T01:46:37.953Z,1007.38
2017-04-02T01:47:48.198Z,1007.45
2017-04-02T01:48:58.441Z,1007.49
2017-04-02T01:50:08.695Z,1007.5
2017-04-02T01:51:18.940Z,1007.47
2017-04-02T01:52:28.867Z,1007.5
2017-04-02T01:53:39.113Z,1007.52
2017-04-02T01:54:49.356Z,1007.59
2017-04-02T01:55:59.287Z,1007.63
2017-04-02T01:57:08.906Z,1007.61
2017-04-02T01:58:19.149Z,1007.63
2017-04-02T01:59:29.080Z,1007.69
2017-04-02T02:00:39.328Z,1007.73
2017-04-02T02:01:49.571Z,1007.78
2017-04-02T02:02:59.186Z,1007.83
2017-04-02T02:04:09.428Z,1007.89
2017-04-02T02:05:19.353Z,1007.89
2017-04-02T02:06:29.592Z,1007.93
2017-04-02T02:07:39.520Z,1007.95
2017-04-02T02:08:49.450Z,1007.95
2017-04-02T02:09:59.691Z,1008.03
2017-04-02T02:11:09.932Z,1008.01
2017-04-02T02:12:20.175Z,1008.04
2017-04-02T02:13:30.110Z,1008.05
2017-04-02T02:14:40.035Z,1008.06
2017-04-02T02:15:50.276Z,1008.06
2017-04-02T02:17:00.515Z,1008.1
2017-04-02T02:18:10.755Z,1008.15
2017-04-02T02:19:20.683Z,1008.12
2017-04-02T02:20:30.626Z,1008.15
2017-04-02T02:21:40.553Z,1008.16
2017-04-02T02:22:50.797Z,1008.14
2017-04-02T02:24:00.725Z,1008.12
2017-04-02T02:25:10.346Z,1008.12
2017-04-02T02:26:20.308Z,1008.13
2017-04-02T02:27:30.236Z,1008.15
2017-04-02T02:28:40.480Z,1008.15
2017-04-02T02:29:50.714Z,1008.18
2017-04-02T02:31:00.953Z,1008.17
2017-04-02T02:32:11.198Z,1008.18
2017-04-02T02:33:21.446Z,1008.23
2017-04-02T02:34:31.696Z,1008.22
2017-04-02T02:35:41.939Z,1008.2
2017-04-02T02:36:52.218Z,1008.2
2017-04-02T02:38:02.460Z,1008.19
2017-04-02T02:39:12.075Z,1008.21
2017-04-02T02:40:22.337Z,1008.28
2017-04-02T02:41:31.990Z,1008.28
2017-04-02T02:42:41.924Z,1008.31
2017-04-02T02:43:52.163Z,1008.27
2017-04-02T02:45:02.098Z,1008.28
2017-04-02T02:46:12.348Z,1008.3
2017-04-02T02:47:22.273Z,1008.33
2017-04-02T02:48:32.551Z,1008.39
2017-04-02T02:49:42.163Z,1008.41
2017-04-02T02:50:52.402Z,1008.41
2017-04-02T02:52:02.642Z,1008.47
2017-04-02T02:53:12.891Z,1008.48
2017-04-02T02:54:23.135Z,1008.5
2017-04-02T02:55:33.392Z,1008.56
2017-04-02T02:56:43.636Z,1008.56
2017-04-02T02:57:53.876Z,1008.58
2017-04-02T02:59:04.118Z,1008.65
2017-04-02T03:00:14.355Z,1008.61
2017-04-02T03:01:23.970Z,1008.6
2017-04-02T03:02:34.209Z,1008.58
2017-04-02T03:03:44.477Z,1008.56
2017-04-02T03:04:54.716Z,1008.53
2017-04-02T03:06:04.965Z,1008.54
2017-04-02T03:07:14.578Z,1008.53
2017-04-02T03:08:24.822Z,1008.49
2017-04-02T03:09:34.752Z,1008.52
2017-04-02T03:10:44.375Z,1008.59
2017-04-02T03:11:54.312Z,1008.6
2017-04-02T03:13:03.924Z,1008.62
2017-04-02T03:14:13.855Z,1008.66
2017-04-02T03:15:23.782Z,1008.67
2017-04-02T03:16:34.027Z,1008.73
2017-04-02T03:17:44.276Z,1008.68
2017-04-02T03:18:54.211Z,1008.7
2017-04-02T03:20:04.454Z,1008.67
2017-04-02T03:21:14.721Z,1008.63
2017-04-02T03:22:24.966Z,1008.66
2017-04-02T03:23:35.215Z,1008.65
2017-04-02T03:24:45.139Z,1008.67
2017-04-02T03:25:55.380Z,1008.65
2017-04-02T03:27:05.617Z,1008.67
2017-04-02T03:28:15.542Z,1008.7
2017-04-02T03:29:25.791Z,1008.71
2017-04-02T03:30:36.030Z,1008.74
2017-04-02T03:31:45.646Z,1008.72
2017-04-02T03:32:55.887Z,1008.72
2017-04-02T03:34:06.127Z,1008.73
2017-04-02T03:35:16.054Z,1008.76
2017-04-02T03:36:25.981Z,1008.78
2017-04-02T03:37:35.906Z,1008.8
2017-04-02T03:38:45.543Z,1008.79
2017-04-02T03:39:55.827Z,1008.81
2017-04-02T03:41:05.755Z,1008.84
2017-04-02T03:42:15.685Z,1008.84
2017-04-02T03:43:25.298Z,1008.86
2017-04-02T03:44:35.580Z,1008.87
2017-04-02T03:45:45.517Z,1008.85
2017-04-02T03:46:55.761Z,1008.88
2017-04-02T03:48:05.685Z,1008.96
2017-04-02T03:49:15.937Z,1008.92
2017-04-02T03:50:25.860Z,1008.96
2017-04-02T03:51:35.508Z,1008.94
2017-04-02T03:52:45.118Z,1008.92
2017-04-02T03:53:55.363Z,1008.92
2017-04-02T03:55:05.319Z,1008.94
2017-04-02T03:56:15.560Z,1008.97
2017-04-02T03:57:25.173Z,1008.95
2017-04-02T03:58:35.096Z,1008.96
2017-04-02T03:59:45.334Z,1009.01
2017-04-02T04:00:55.270Z,1009.02
2017-04-02T04:02:05.241Z,1009.03
2017-04-02T04:03:15.478Z,1009.03
2017-04-02T04:04:25.100Z,1009.03
2017-04-02T04:05:35.028Z,1009.06
2017-04-02T04:06:44.955Z,1009.03
2017-04-02T04:07:55.196Z,1009.02
2017-04-02T04:09:04.816Z,1009
2017-04-02T04:10:15.065Z,1008.98
2017-04-02T04:11:25.308Z,1009.01
2017-04-02T04:12:34.921Z,1009
2017-04-02T04:13:44.850Z,1009.02
2017-04-02T04:14:55.100Z,1009.03
2017-04-02T04:16:05.052Z,1009.06
2017-04-02T04:17:15.290Z,1009.07
2017-04-02T04:18:24.898Z,1009.06
2017-04-02T04:19:35.136Z,1009.06
2017-04-02T04:20:45.067Z,1009.05
2017-04-02T04:21:54.995Z,1009.04
2017-04-02T04:23:04.924Z,1009.05
2017-04-02T04:24:15.165Z,1009.06
2017-04-02T04:25:25.097Z,1009.11
2017-04-02T04:26:35.030Z,1009.15
2017-04-02T04:27:44.958Z,1009.17
2017-04-02T04:28:54.884Z,1009.16
2017-04-02T04:30:04.814Z,1009.13
2017-04-02T04:31:15.055Z,1009.17
2017-04-02T04:32:24.727Z,1009.19
2017-04-02T04:33:34.970Z,1009.13
2017-04-02T04:34:45.216Z,1009.14
2017-04-02T04:35:55.459Z,1009.16
2017-04-02T04:37:05.715Z,1009.24
2017-04-02T04:38:15.966Z,1009.24
2017-04-02T04:39:25.578Z,1009.25
2017-04-02T04:40:35.817Z,1009.29
2017-04-02T04:41:46.060Z,1009.3
2017-04-02T04:42:55.986Z,1009.31
2017-04-02T04:44:05.912Z,1009.31
2017-04-02T04:45:16.164Z,1009.32
2017-04-02T04:46:26.410Z,1009.35
2017-04-02T04:47:35.724Z,1009.36
2017-04-02T04:48:45.650Z,1009.38
2017-04-02T04:49:55.577Z,1009.46
2017-04-02T04:51:05.825Z,1009.47
2017-04-02T04:52:16.065Z,1009.49
2017-04-02T04:53:26.318Z,1009.51
2017-04-02T04:54:36.563Z,1009.47
2017-04-02T04:55:46.184Z,1009.54
2017-04-02T04:56:56.432Z,1009.53
2017-04-02T04:58:06.669Z,1009.57
2017-04-02T04:59:16.909Z,1009.53
2017-04-02T05:00:26.838Z,1009.52
2017-04-02T05:01:36.769Z,1009.46
2017-04-02T05:02:47.014Z,1009.44
2017-04-02T05:03:56.942Z,1009.44
2017-04-02T05:05:06.867Z,1009.45
2017-04-02T05:06:16.794Z,1009.49
2017-04-02T05:07:27.047Z,1009.49
2017-04-02T05:08:36.686Z,1009.52
2017-04-02T05:09:46.936Z,1009.56
2017-04-02T05:10:57.180Z,1009.56
2017-04-02T05:12:07.120Z,1009.6
2017-04-02T05:13:16.734Z,1009.62
2017-04-02T05:14:26.985Z,1009.66
2017-04-02T05:15:37.226Z,1009.69
2017-04-02T05:16:47.471Z,1009.77
2017-04-02T05:17:57.402Z,1009.76
2017-04-02T05:19:07.333Z,1009.8
2017-04-02T05:20:17.576Z,1009.8
2017-04-02T05:21:27.516Z,1009.79
2017-04-02T05:22:36.517Z,1009.77
2017-04-02T05:23:46.170Z,1009.74
2017-04-02T05:24:56.413Z,1009.78
2017-04-02T05:26:06.656Z,1009.84
2017-04-02T05:27:16.591Z,1009.9
2017-04-02T05:28:26.523Z,1009.95
2017-04-02T05:29:36.793Z,1009.93
2017-04-02T05:30:47.040Z,1010.01
2017-04-02T05:31:57.298Z,1009.99
2017-04-02T05:33:06.912Z,1009.99
2017-04-02T05:34:16.524Z,1010.05
2017-04-02T05:35:26.764Z,1010.08
2017-04-02T05:36:37.008Z,1010.15
2017-04-02T05:37:47.249Z,1010.19
2017-04-02T05:38:57.539Z,1010.21
2017-04-02T05:40:07.785Z,1010.28
2017-04-02T05:41:17.720Z,1010.32
2017-04-02T05:42:27.961Z,1010.34
2017-04-02T05:43:38.199Z,1010.39
2017-04-02T05:44:48.168Z,1010.44
2017-04-02T05:45:58.099Z,1010.42
2017-04-02T05:47:08.022Z,1010.48
2017-04-02T05:48:17.953Z,1010.51
2017-04-02T05:49:27.567Z,1010.49
2017-04-02T05:50:37.489Z,1010.54
2017-04-02T05:51:47.726Z,1010.54
2017-04-02T05:52:57.660Z,1010.63
2017-04-02T05:54:07.591Z,1010.64
2017-04-02T05:55:17.209Z,1010.71
2017-04-02T05:56:27.484Z,1010.76
2017-04-02T05:57:37.412Z,1010.78
2017-04-02T05:58:47.651Z,1010.83
2017-04-02T05:59:57.582Z,1010.88
2017-04-02T06:01:07.828Z,1010.88
2017-04-02T06:02:18.066Z,1010.9
2017-04-02T06:03:28.308Z,1010.88
2017-04-02T06:04:38.544Z,1010.91
2017-04-02T06:05:48.172Z,1010.98
2017-04-02T06:06:58.416Z,1011.05
2017-04-02T06:08:08.346Z,1010.99
2017-04-02T06:09:17.960Z,1010.96
2017-04-02T06:10:27.893Z,1010.99
2017-04-02T06:11:37.826Z,1011.04
2017-04-02T06:12:47.438Z,1011.07
2017-04-02T06:13:57.683Z,1011.04
2017-04-02T06:15:07.917Z,1011.07
2017-04-02T06:16:17.851Z,1011.12
2017-04-02T06:17:27.465Z,1011.1
2017-04-02T06:18:37.705Z,1011.19
2017-04-02T06:19:47.632Z,1011.27
2017-04-02T06:20:57.871Z,1011.28
2017-04-02T06:22:08.111Z,1011.37
2017-04-02T06:23:18.038Z,1011.41
2017-04-02T06:24:27.963Z,1011.4
2017-04-02T06:25:37.919Z,1011.44
2017-04-02T06:26:48.164Z,1011.4
2017-04-02T06:27:58.403Z,1011.38
2017-04-02T06:29:07.703Z,1011.36
2017-04-02T06:30:17.628Z,1011.3
2017-04-02T06:31:27.555Z,1011.3
2017-04-02T06:32:37.485Z,1011.29
2017-04-02T06:33:47.417Z,1011.28
2017-04-02T06:34:57.661Z,1011.37
2017-04-02T06:36:07.908Z,1011.37
2017-04-02T06:37:17.523Z,1011.35
2017-04-02T06:38:27.142Z,1011.42
2017-04-02T06:39:37.381Z,1011.43
2017-04-02T06:40:47.310Z,1011.5
2017-04-02T06:41:56.927Z,1011.56
2017-04-02T06:43:06.236Z,1011.63
2017-04-02T06:44:16.166Z,1011.65
2017-04-02T06:45:25.779Z,1011.71
2017-04-02T06:46:35.711Z,1011.64
2017-04-02T06:47:45.638Z,1011.67
2017-04-02T06:48:55.568Z,1011.67
2017-04-02T06:50:05.499Z,1011.68
2017-04-02T06:51:15.426Z,1011.7
2017-04-02T06:52:25.354Z,1011.69
2017-04-02T06:53:35.281Z,1011.63
2017-04-02T06:54:44.916Z,1011.66
2017-04-02T06:55:55.153Z,1011.6
2017-04-02T06:57:05.109Z,1011.62
2017-04-02T06:58:14.725Z,1011.66
2017-04-02T06:59:24.970Z,1011.65
2017-04-02T07:00:34.587Z,1011.74
2017-04-02T07:01:44.223Z,1011.74
2017-04-02T07:02:54.159Z,1011.8
2017-04-02T07:04:04.397Z,1011.8
2017-04-02T07:05:14.013Z,1011.8
2017-04-02T07:06:24.256Z,1011.79
2017-04-02T07:07:33.872Z,1011.8
2017-04-02T07:08:44.122Z,1011.78
2017-04-02T07:09:54.054Z,1011.84
2017-04-02T07:11:03.711Z,1011.83
2017-04-02T07:12:13.952Z,1011.83
2017-04-02T07:13:24.212Z,1011.85
2017-04-02T07:14:34.453Z,1011.89
2017-04-02T07:15:44.384Z,1011.89
2017-04-02T07:16:54.312Z,1011.91
2017-04-02T07:18:04.246Z,1011.89
2017-04-02T07:19:14.178Z,1011.93
2017-04-02T07:20:24.102Z,1011.94
2017-04-02T07:21:34.028Z,1011.99
2017-04-02T07:22:44.296Z,1012.03
2017-04-02T07:23:54.539Z,1012.1
2017-04-02T07:25:04.473Z,1012.1
2017-04-02T07:26:14.093Z,1012.15
2017-04-02T07:27:23.721Z,1012.23
2017-04-02T07:28:33.647Z,1012.26
2017-04-02T07:29:43.903Z,1012.28
2017-04-02T07:30:54.143Z,1012.28
2017-04-02T07:32:04.072Z,1012.33
2017-04-02T07:33:13.999Z,1012.34
2017-04-02T07:34:24.249Z,1012.37
2017-04-02T07:35:34.216Z,1012.43
2017-04-02T07:36:44.151Z,1012.43
2017-04-02T07:37:54.392Z,1012.43
2017-04-02T07:39:04.324Z,1012.5
2017-04-02T07:40:13.946Z,1012.54
2017-04-02T07:41:24.191Z,1012.54
2017-04-02T07:42:34.123Z,1012.57
2017-04-02T07:43:44.050Z,1012.59
2017-04-02T07:44:53.984Z,1012.52
2017-04-02T07:46:03.912Z,1012.6
2017-04-02T07:47:14.155Z,1012.58
2017-04-02T07:48:23.774Z,1012.56
2017-04-02T07:49:33.708Z,1012.59
2017-04-02T07:50:43.951Z,1012.63
2017-04-02T07:51:54.194Z,1012.6
2017-04-02T07:53:04.435Z,1012.64
2017-04-02T07:54:14.359Z,1012.68
2017-04-02T07:55:24.603Z,1012.64
2017-04-02T07:56:34.536Z,1012.76
2017-04-02T07:57:44.798Z,1012.71
2017-04-02T07:58:54.730Z,1012.8
2017-04-02T08:00:04.974Z,1012.81
2017-04-02T08:01:14.904Z,1012.79
2017-04-02T08:02:25.151Z,1012.82
2017-04-02T08:03:34.773Z,1012.79
2017-04-02T08:04:45.008Z,1012.76
2017-04-02T08:05:54.626Z,1012.85
2017-04-02T08:07:04.249Z,1012.87
2017-04-02T08:08:14.498Z,1012.84
2017-04-02T08:09:24.751Z,1012.82
2017-04-02T08:10:34.682Z,1012.86
2017-04-02T08:11:44.300Z,1012.91
2017-04-02T08:12:54.542Z,1012.87
2017-04-02T08:14:03.844Z,1012.86
2017-04-02T08:15:14.088Z,1012.88
2017-04-02T08:16:24.029Z,1012.9
2017-04-02T08:17:34.293Z,1012.93
2017-04-02T08:18:43.905Z,1012.91
2017-04-02T08:19:53.827Z,1012.95
2017-04-02T08:21:03.476Z,1012.96
2017-04-02T08:22:13.404Z,1012.97
2017-04-02T08:23:23.676Z,1012.95
2017-04-02T08:24:33.919Z,1013
2017-04-02T08:25:43.849Z,1013.04
2017-04-02T08:26:53.776Z,1012.99
2017-04-02T08:28:03.726Z,1013
2017-04-02T08:29:13.338Z,1013.02
2017-04-02T08:30:23.267Z,1013.07
2017-04-02T08:31:33.197Z,1013.07
2017-04-02T08:32:42.838Z,1013.08
2017-04-02T08:33:53.082Z,1013.09
2017-04-02T08:35:02.701Z,1013.11
2017-04-02T08:36:12.019Z,1013.16
2017-04-02T08:37:22.275Z,1013.22
2017-04-02T08:38:32.198Z,1013.23
2017-04-02T08:39:42.127Z,1013.29
2017-04-02T08:40:52.056Z,1013.26
2017-04-02T08:42:01.985Z,1013.32
2017-04-02T08:43:11.914Z,1013.32
2017-04-02T08:44:21.848Z,1013.36
2017-04-02T08:45:32.096Z,1013.4
2017-04-02T08:46:42.040Z,1013.35
2017-04-02T08:47:52.278Z,1013.38
2017-04-02T08:49:01.899Z,1013.34
2017-04-02T08:50:11.518Z,1013.35
2017-04-02T08:51:21.443Z,1013.44
2017-04-02T08:52:31.696Z,1013.4
2017-04-02T08:53:41.941Z,1013.43
2017-04-02T08:54:52.181Z,1013.41
2017-04-02T08:56:01.486Z,1013.45
2017-04-02T08:57:11.449Z,1013.45
2017-04-02T08:58:21.063Z,1013.5
2017-04-02T08:59:30.992Z,1013.55
2017-04-02T09:00:40.609Z,1013.57
2017-04-02T09:01:50.861Z,1013.57
2017-04-02T09:03:00.794Z,1013.58
2017-04-02T09:04:10.725Z,1013.6
2017-04-02T09:05:20.339Z,1013.63
2017-04-02T09:06:30.270Z,1013.61
2017-04-02T09:07:40.195Z,1013.68
2017-04-02T09:08:50.124Z,1013.69
2017-04-02T09:09:59.431Z,1013.65
2017-04-02T09:11:09.674Z,1013.7
2017-04-02T09:12:19.302Z,1013.71
2017-04-02T09:13:28.918Z,1013.66
2017-04-02T09:14:38.853Z,1013.68
2017-04-02T09:15:49.102Z,1013.68
2017-04-02T09:16:59.340Z,1013.71
2017-04-02T09:18:08.956Z,1013.7
2017-04-02T09:19:18.886Z,1013.71
2017-04-02T09:20:28.812Z,1013.72
2017-04-02T09:21:39.066Z,1013.74
2017-04-02T09:22:49.004Z,1013.76
2017-04-02T09:23:59.252Z,1013.77
2017-04-02T09:25:09.190Z,1013.77
2017-04-02T09:26:18.807Z,1013.75
2017-04-02T09:27:28.731Z,1013.75
2017-04-02T09:28:38.660Z,1013.78
2017-04-02T09:29:48.902Z,1013.8
2017-04-02T09:30:59.147Z,1013.81
2017-04-02T09:32:09.388Z,1013.84
2017-04-02T09:33:19.316Z,1013.82
2017-04-02T09:34:29.565Z,1013.86
2017-04-02T09:35:39.185Z,1013.89
2017-04-02T09:36:49.433Z,1013.93
2017-04-02T09:37:59.677Z,1013.94
2017-04-02T09:39:09.923Z,1013.96
2017-04-02T09:40:19.227Z,1013.96
2017-04-02T09:41:29.474Z,1014
2017-04-02T09:42:39.401Z,1014
2017-04-02T09:43:49.012Z,1014.01
2017-04-02T09:44:59.247Z,1014.05
2017-04-02T09:46:09.193Z,1014.09
2017-04-02T09:47:19.438Z,1014.09
2017-04-02T09:48:29.368Z,1014.14
2017-04-02T09:49:39.610Z,1014.13
2017-04-02T09:50:49.535Z,1014.15
2017-04-02T09:51:59.466Z,1014.15
2017-04-02T09:53:09.396Z,1014.16
2017-04-02T09:54:19.634Z,1014.15
2017-04-02T09:55:29.872Z,1014.21
2017-04-02T09:56:40.107Z,1014.21
2017-04-02T09:57:50.041Z,1014.2
2017-04-02T09:58:59.964Z,1014.19
2017-04-02T10:00:10.203Z,1014.26
2017-04-02T10:01:20.454Z,1014.25
2017-04-02T10:02:30.695Z,1014.33
2017-04-02T10:03:40.624Z,1014.31
2017-04-02T10:04:50.549Z,1014.29
2017-04-02T10:06:00.486Z,1014.34
2017-04-02T10:07:10.108Z,1014.3
2017-04-02T10:08:20.343Z,1014.34
2017-04-02T10:09:30.584Z,1014.34
2017-04-02T10:10:40.202Z,1014.32
2017-04-02T10:11:49.823Z,1014.35
2017-04-02T10:12:59.756Z,1014.39
2017-04-02T10:14:09.688Z,1014.37
2017-04-02T10:15:19.612Z,1014.38
2017-04-02T10:16:29.874Z,1014.38
2017-04-02T10:17:40.126Z,1014.39
2017-04-02T10:18:49.794Z,1014.42
2017-04-02T10:20:00.036Z,1014.39
2017-04-02T10:21:09.657Z,1014.39
2017-04-02T10:22:18.961Z,1014.37
2017-04-02T10:23:28.889Z,1014.45
2017-04-02T10:24:39.126Z,1014.4
2017-04-02T10:25:49.056Z,1014.44
2017-04-02T10:26:59.312Z,1014.42
2017-04-02T10:28:09.551Z,1014.39
2017-04-02T10:29:19.486Z,1014.43
2017-04-02T10:30:29.415Z,1014.43
2017-04-02T10:31:39.034Z,1014.41
2017-04-02T10:32:48.963Z,1014.4
2017-04-02T10:33:58.885Z,1014.42
2017-04-02T10:35:08.515Z,1014.39
2017-04-02T10:36:18.445Z,1014.42
2017-04-02T10:37:28.372Z,1014.43
2017-04-02T10:38:38.003Z,1014.43
2017-04-02T10:39:47.652Z,1014.41
2017-04-02T10:40:57.898Z,1014.44
2017-04-02T10:42:08.143Z,1014.43
2017-04-02T10:43:18.071Z,1014.49
2017-04-02T10:44:28.014Z,1014.46
2017-04-02T10:45:37.629Z,1014.48
2017-04-02T10:46:47.564Z,1014.52
2017-04-02T10:47:57.498Z,1014.53
2017-04-02T10:49:07.435Z,1014.5
2017-04-02T10:50:17.054Z,1014.51
2017-04-02T10:51:26.978Z,1014.5
2017-04-02T10:52:36.600Z,1014.49
2017-04-02T10:53:46.845Z,1014.5
2017-04-02T10:54:57.075Z,1014.51
2017-04-02T10:56:07.005Z,1014.44
2017-04-02T10:57:17.243Z,1014.49
2017-04-02T10:58:27.492Z,1014.49
2017-04-02T10:59:37.412Z,1014.47
2017-04-02T11:00:47.657Z,1014.52
2017-04-02T11:01:56.960Z,1014.52
2017-04-02T11:03:07.250Z,1014.55
2017-04-02T11:04:17.179Z,1014.5
2017-04-02T11:05:27.106Z,1014.5
2017-04-02T11:06:36.726Z,1014.51
2017-04-02T11:07:46.651Z,1014.56
2017-04-02T11:08:56.893Z,1014.51
2017-04-02T11:10:07.132Z,1014.53
2017-04-02T11:11:17.097Z,1014.56
2017-04-02T11:12:27.031Z,1014.57
2017-04-02T11:13:36.965Z,1014.56
2017-04-02T11:14:46.885Z,1014.63
2017-04-02T11:15:57.121Z,1014.58
2017-04-02T11:17:07.368Z,1014.61
2017-04-02T11:18:17.301Z,1014.62
2017-04-02T11:19:26.615Z,1014.64
2017-04-02T11:20:36.231Z,1014.65
2017-04-02T11:21:45.854Z,1014.69
2017-04-02T11:22:55.794Z,1014.66
2017-04-02T11:24:05.732Z,1014.68
2017-04-02T11:25:15.976Z,1014.68
2017-04-02T11:26:26.222Z,1014.68
2017-04-02T11:27:35.878Z,1014.71
2017-04-02T11:28:45.803Z,1014.68
2017-04-02T11:29:55.732Z,1014.7
2017-04-02T11:31:05.988Z,1014.68
2017-04-02T11:32:15.924Z,1014.72
2017-04-02T11:33:26.166Z,1014.7
2017-04-02T11:34:36.112Z,1014.72
2017-04-02T11:35:46.045Z,1014.73
2017-04-02T11:36:55.981Z,1014.75
2017-04-02T11:38:06.222Z,1014.72
2017-04-02T11:39:16.150Z,1014.72
2017-04-02T11:40:26.089Z,1014.77
2017-04-02T11:41:36.335Z,1014.75
2017-04-02T11:42:46.568Z,1014.75
2017-04-02T11:43:56.806Z,1014.72
2017-04-02T11:45:06.733Z,1014.74
2017-04-02T11:46:16.677Z,1014.69
2017-04-02T11:47:26.937Z,1014.67
2017-04-02T11:48:36.869Z,1014.69
2017-04-02T11:49:46.792Z,1014.73
2017-04-02T11:50:56.715Z,1014.69
2017-04-02T11:52:06.956Z,1014.78
2017-04-02T11:53:17.199Z,1014.69
2017-04-02T11:54:27.129Z,1014.71
2017-04-02T11:55:36.751Z,1014.72
2017-04-02T11:56:46.673Z,1014.68
2017-04-02T11:57:56.919Z,1014.74
2017-04-02T11:59:07.165Z,1014.72
2017-04-02T12:00:17.412Z,1014.7
2017-04-02T12:01:27.660Z,1014.73
2017-04-02T12:02:37.904Z,1014.71
2017-04-02T12:03:47.830Z,1014.75
2017-04-02T12:04:58.068Z,1014.76
2017-04-02T12:06:08.313Z,1014.79
2017-04-02T12:07:18.240Z,1014.78
2017-04-02T12:08:28.173Z,1014.72
2017-04-02T12:09:37.789Z,1014.74
2017-04-02T12:10:47.719Z,1014.78
2017-04-02T12:11:57.962Z,1014.78
2017-04-02T12:13:07.890Z,1014.74
2017-04-02T12:14:18.124Z,1014.74
2017-04-02T12:15:28.051Z,1014.73
2017-04-02T12:16:37.979Z,1014.73
2017-04-02T12:17:48.223Z,1014.78
2017-04-02T12:18:58.465Z,1014.82
2017-04-02T12:20:08.706Z,1014.81
2017-04-02T12:21:18.661Z,1014.84
2017-04-02T12:22:28.911Z,1014.83
2017-04-02T12:23:38.528Z,1014.88
2017-04-02T12:24:48.492Z,1014.87
2017-04-02T12:25:58.415Z,1014.88
2017-04-02T12:27:08.659Z,1014.89
2017-04-02T12:28:18.583Z,1014.91
2017-04-02T12:29:28.193Z,1014.89
2017-04-02T12:30:38.435Z,1014.89
2017-04-02T12:31:48.371Z,1014.9
2017-04-02T12:32:58.609Z,1014.83
2017-04-02T12:34:08.230Z,1014.8
2017-04-02T12:35:18.165Z,1014.82
2017-04-02T12:36:28.107Z,1014.88
2017-04-02T12:37:38.036Z,1014.82
2017-04-02T12:38:48.280Z,1014.76
2017-04-02T12:39:58.526Z,1014.81
2017-04-02T12:41:08.452Z,1014.81
2017-04-02T12:42:18.386Z,1014.79
2017-04-02T12:43:28.315Z,1014.8
2017-04-02T12:44:38.572Z,1014.75
2017-04-02T12:45:48.502Z,1014.84
2017-04-02T12:46:58.745Z,1014.81
2017-04-02T12:48:08.985Z,1014.8
2017-04-02T12:49:18.917Z,1014.81
2017-04-02T12:50:29.154Z,1014.84
2017-04-02T12:51:39.401Z,1014.79
2017-04-02T12:52:49.324Z,1014.78
2017-04-02T12:53:59.249Z,1014.79
2017-04-02T12:55:09.177Z,1014.77
2017-04-02T12:56:19.108Z,1014.8
2017-04-02T12:57:28.731Z,1014.81
2017-04-02T12:58:38.662Z,1014.84
2017-04-02T12:59:48.896Z,1014.9
2017-04-02T13:00:58.510Z,1014.87
2017-04-02T13:02:08.446Z,1014.93
2017-04-02T13:03:18.682Z,1014.83
2017-04-02T13:04:28.921Z,1014.85
2017-04-02T13:05:39.160Z,1014.85
2017-04-02T13:06:49.093Z,1014.92
2017-04-02T13:07:59.028Z,1014.86
2017-04-02T13:09:08.645Z,1014.89
2017-04-02T13:10:18.890Z,1014.87
2017-04-02T13:11:28.507Z,1014.83
2017-04-02T13:12:38.751Z,1014.75
2017-04-02T13:13:48.364Z,1014.78
2017-04-02T13:14:58.330Z,1014.76
2017-04-02T13:16:08.619Z,1014.77
2017-04-02T13:17:18.562Z,1014.8
2017-04-02T13:18:28.489Z,1014.77
2017-04-02T13:19:38.414Z,1014.82
2017-04-02T13:20:48.701Z,1014.8
2017-04-02T13:21:58.627Z,1014.8
2017-04-02T13:23:08.240Z,1014.8
2017-04-02T13:24:18.483Z,1014.83
2017-04-02T13:25:28.724Z,1014.83
2017-04-02T13:26:38.660Z,1014.82
2017-04-02T13:27:48.913Z,1014.83
2017-04-02T13:28:58.524Z,1014.83
2017-04-02T13:30:08.763Z,1014.83
2017-04-02T13:31:18.693Z,1014.9
2017-04-02T13:32:28.617Z,1014.88
2017-04-02T13:33:38.547Z,1014.89
2017-04-02T13:34:48.826Z,1014.89
2017-04-02T13:35:58.759Z,1014.83
2017-04-02T13:37:09.006Z,1014.89
2017-04-02T13:38:19.254Z,1014.84
2017-04-02T13:39:29.184Z,1014.86
2017-04-02T13:40:39.114Z,1014.84
2017-04-02T13:41:49.358Z,1014.86
2017-04-02T13:42:59.597Z,1014.86
2017-04-02T13:44:09.846Z,1014.94
2017-04-02T13:45:20.086Z,1014.96
2017-04-02T13:46:29.699Z,1014.93
2017-04-02T13:47:39.937Z,1014.92
2017-04-02T13:48:49.859Z,1014.9
2017-04-02T13:50:00.139Z,1014.91
2017-04-02T13:51:10.066Z,1014.89
2017-04-02T13:52:19.682Z,1014.89
2017-04-02T13:53:29.297Z,1014.93
2017-04-02T13:54:39.542Z,1014.88
2017-04-02T13:55:49.787Z,1014.9
2017-04-02T13:57:00.021Z,1014.93
2017-04-02T13:58:10.270Z,1014.95
2017-04-02T13:59:20.511Z,1014.97
2017-04-02T14:00:30.753Z,1014.94
2017-04-02T14:01:41.037Z,1014.93
2017-04-02T14:02:50.967Z,1015.03
2017-04-02T14:04:01.212Z,1015.03
2017-04-02T14:05:11.468Z,1015.08
2017-04-02T14:06:21.705Z,1015.06
2017-04-02T14:07:31.952Z,1015.07
2017-04-02T14:08:41.562Z,1015.09
2017-04-02T14:09:51.812Z,1015.11